sensor_id;sensor_type;location;lat;lon;timestamp;P1;durP1;ratioP1;P2;durP2;ratioP2
58784;SDS011;44557;51.862;19.378;2023-07-02T00:00:01;17.80;;;12.40;;
58784;SDS011;44557;51.862;19.378;2023-07-02T00:02:07;17.10;;;12.40;;
58784;SDS011;44557;51.862;19.378;2023-07-02T00:04:09;16.60;;;12.20;;
58784;SDS011;44557;51.862;19.378;2023-07-02T00:06:15;16.70;;;12.60;;
58784;SDS011;44557;51.862;19.378;2023-07-02T00:08:19;16.00;;;12.10;;
58784;SDS011;44557;51.862;19.378;2023-07-02T00:10:21;15.60;;;12.20;;
58784;SDS011;44557;51.862;19.378;2023-07-02T00:12:23;16.80;;;12.30;;
58784;SDS011;44557;51.862;19.378;2023-07-02T00:14:25;17.30;;;12.20;;
58784;SDS011;44557;51.862;19.378;2023-07-02T00:16:27;17.30;;;13.10;;
58784;SDS011;44557;51.862;19.378;2023-07-02T00:18:30;18.40;;;12.90;;
58784;SDS011;44557;51.862;19.378;2023-07-02T00:20:35;17.30;;;12.10;;
58784;SDS011;44557;51.862;19.378;2023-07-02T00:22:40;17.60;;;12.20;;
58784;SDS011;44557;51.862;19.378;2023-07-02T00:24:47;17.50;;;12.90;;
58784;SDS011;44557;51.862;19.378;2023-07-02T00:26:50;16.40;;;12.90;;
58784;SDS011;44557;51.862;19.378;2023-07-02T00:28:52;17.10;;;12.60;;
58784;SDS011;44557;51.862;19.378;2023-07-02T00:30:55;19.50;;;13.20;;
58784;SDS011;44557;51.862;19.378;2023-07-02T00:32:57;16.70;;;12.10;;
58784;SDS011;44557;51.862;19.378;2023-07-02T00:34:59;16.70;;;12.70;;
58784;SDS011;44557;51.862;19.378;2023-07-02T00:37:02;16.70;;;12.00;;
58784;SDS011;44557;51.862;19.378;2023-07-02T00:39:04;17.30;;;12.30;;
58784;SDS011;44557;51.862;19.378;2023-07-02T00:41:06;17.20;;;12.00;;
58784;SDS011;44557;51.862;19.378;2023-07-02T00:43:09;16.90;;;12.10;;
58784;SDS011;44557;51.862;19.378;2023-07-02T00:45:14;16.00;;;12.10;;
58784;SDS011;44557;51.862;19.378;2023-07-02T00:47:16;15.50;;;11.50;;
58784;SDS011;44557;51.862;19.378;2023-07-02T00:49:19;16.30;;;11.50;;
58784;SDS011;44557;51.862;19.378;2023-07-02T00:51:25;16.20;;;11.80;;
58784;SDS011;44557;51.862;19.378;2023-07-02T00:53:28;17.20;;;11.90;;
58784;SDS011;44557;51.862;19.378;2023-07-02T00:55:30;15.20;;;11.50;;
58784;SDS011;44557;51.862;19.378;2023-07-02T00:57:32;15.80;;;12.30;;
58784;SDS011;44557;51.862;19.378;2023-07-02T00:59:36;16.30;;;11.60;;
58784;SDS011;44557;51.862;19.378;2023-07-02T01:01:39;15.00;;;11.40;;
58784;SDS011;44557;51.862;19.378;2023-07-02T01:06:03;15.70;;;11.50;;
58784;SDS011;44557;51.862;19.378;2023-07-02T01:08:25;17.30;;;12.40;;
58784;SDS011;44557;51.862;19.378;2023-07-02T01:10:28;16.20;;;12.30;;
58784;SDS011;44557;51.862;19.378;2023-07-02T01:12:32;17.80;;;12.10;;
58784;SDS011;44557;51.862;19.378;2023-07-02T01:14:40;15.70;;;11.30;;
58784;SDS011;44557;51.862;19.378;2023-07-02T01:16:45;15.10;;;11.60;;
58784;SDS011;44557;51.862;19.378;2023-07-02T01:18:50;16.00;;;11.00;;
58784;SDS011;44557;51.862;19.378;2023-07-02T01:20:55;16.00;;;11.10;;
58784;SDS011;44557;51.862;19.378;2023-07-02T01:22:58;16.00;;;11.10;;
58784;SDS011;44557;51.862;19.378;2023-07-02T01:25:04;16.30;;;11.70;;
58784;SDS011;44557;51.862;19.378;2023-07-02T01:27:07;14.50;;;10.90;;
58784;SDS011;44557;51.862;19.378;2023-07-02T01:29:15;14.50;;;10.80;;
58784;SDS011;44557;51.862;19.378;2023-07-02T01:31:23;16.90;;;11.20;;
58784;SDS011;44557;51.862;19.378;2023-07-02T01:33:27;15.40;;;11.20;;
58784;SDS011;44557;51.862;19.378;2023-07-02T01:35:29;15.40;;;10.70;;
58784;SDS011;44557;51.862;19.378;2023-07-02T01:37:31;14.70;;;9.80;;
58784;SDS011;44557;51.862;19.378;2023-07-02T01:39:39;14.60;;;11.20;;
58784;SDS011;44557;51.862;19.378;2023-07-02T01:41:42;15.30;;;10.50;;
58784;SDS011;44557;51.862;19.378;2023-07-02T01:43:47;16.70;;;11.10;;
58784;SDS011;44557;51.862;19.378;2023-07-02T01:45:50;14.80;;;10.50;;
58784;SDS011;44557;51.862;19.378;2023-07-02T01:47:52;15.20;;;10.30;;
58784;SDS011;44557;51.862;19.378;2023-07-02T01:49:53;15.20;;;10.70;;
58784;SDS011;44557;51.862;19.378;2023-07-02T01:51:56;13.80;;;10.00;;
58784;SDS011;44557;51.862;19.378;2023-07-02T01:53:58;14.60;;;10.20;;
58784;SDS011;44557;51.862;19.378;2023-07-02T01:55:59;15.70;;;10.90;;
58784;SDS011;44557;51.862;19.378;2023-07-02T01:58:01;13.80;;;10.20;;
58784;SDS011;44557;51.862;19.378;2023-07-02T02:00:04;14.70;;;10.60;;
58784;SDS011;44557;51.862;19.378;2023-07-02T02:02:06;14.00;;;10.80;;
58784;SDS011;44557;51.862;19.378;2023-07-02T02:04:09;14.20;;;10.80;;
58784;SDS011;44557;51.862;19.378;2023-07-02T02:06:12;15.90;;;11.40;;
58784;SDS011;44557;51.862;19.378;2023-07-02T02:08:14;15.30;;;10.40;;
58784;SDS011;44557;51.862;19.378;2023-07-02T02:10:16;14.10;;;10.60;;
58784;SDS011;44557;51.862;19.378;2023-07-02T02:12:18;14.10;;;10.10;;
58784;SDS011;44557;51.862;19.378;2023-07-02T02:14:21;15.00;;;10.00;;
58784;SDS011;44557;51.862;19.378;2023-07-02T02:16:23;16.50;;;10.70;;
58784;SDS011;44557;51.862;19.378;2023-07-02T02:18:25;15.30;;;10.60;;
58784;SDS011;44557;51.862;19.378;2023-07-02T02:20:27;14.80;;;10.20;;
58784;SDS011;44557;51.862;19.378;2023-07-02T02:22:29;13.50;;;10.20;;
58784;SDS011;44557;51.862;19.378;2023-07-02T02:24:31;16.30;;;10.70;;
58784;SDS011;44557;51.862;19.378;2023-07-02T02:26:34;14.60;;;10.60;;
58784;SDS011;44557;51.862;19.378;2023-07-02T02:28:36;15.60;;;10.20;;
58784;SDS011;44557;51.862;19.378;2023-07-02T02:30:39;13.60;;;10.30;;
58784;SDS011;44557;51.862;19.378;2023-07-02T02:32:41;14.40;;;10.50;;
58784;SDS011;44557;51.862;19.378;2023-07-02T02:34:43;14.40;;;10.90;;
58784;SDS011;44557;51.862;19.378;2023-07-02T02:36:45;15.20;;;10.20;;
58784;SDS011;44557;51.862;19.378;2023-07-02T02:38:49;15.70;;;10.20;;
58784;SDS011;44557;51.862;19.378;2023-07-02T02:40:51;15.00;;;10.50;;
58784;SDS011;44557;51.862;19.378;2023-07-02T02:42:53;14.10;;;10.40;;
58784;SDS011;44557;51.862;19.378;2023-07-02T02:44:55;14.60;;;10.00;;
58784;SDS011;44557;51.862;19.378;2023-07-02T02:46:57;16.00;;;10.10;;
58784;SDS011;44557;51.862;19.378;2023-07-02T02:48:59;13.80;;;10.30;;
58784;SDS011;44557;51.862;19.378;2023-07-02T02:51:01;14.80;;;9.80;;
58784;SDS011;44557;51.862;19.378;2023-07-02T02:53:04;13.50;;;9.50;;
58784;SDS011;44557;51.862;19.378;2023-07-02T02:55:06;13.40;;;9.80;;
58784;SDS011;44557;51.862;19.378;2023-07-02T02:57:09;13.80;;;9.90;;
58784;SDS011;44557;51.862;19.378;2023-07-02T02:59:11;14.00;;;9.80;;
58784;SDS011;44557;51.862;19.378;2023-07-02T03:01:13;14.50;;;10.10;;
58784;SDS011;44557;51.862;19.378;2023-07-02T03:03:16;14.50;;;10.20;;
58784;SDS011;44557;51.862;19.378;2023-07-02T03:05:22;13.50;;;9.50;;
58784;SDS011;44557;51.862;19.378;2023-07-02T03:07:24;13.10;;;9.80;;
58784;SDS011;44557;51.862;19.378;2023-07-02T03:09:27;14.10;;;9.80;;
58784;SDS011;44557;51.862;19.378;2023-07-02T03:11:30;11.60;;;8.90;;
58784;SDS011;44557;51.862;19.378;2023-07-02T03:13:32;14.70;;;10.30;;
58784;SDS011;44557;51.862;19.378;2023-07-02T03:15:35;13.20;;;9.50;;
58784;SDS011;44557;51.862;19.378;2023-07-02T03:17:37;13.40;;;8.80;;
58784;SDS011;44557;51.862;19.378;2023-07-02T03:19:40;15.20;;;9.90;;
58784;SDS011;44557;51.862;19.378;2023-07-02T03:21:45;13.60;;;9.70;;
58784;SDS011;44557;51.862;19.378;2023-07-02T03:23:48;12.80;;;8.70;;
58784;SDS011;44557;51.862;19.378;2023-07-02T03:25:50;13.00;;;9.30;;
58784;SDS011;44557;51.862;19.378;2023-07-02T03:27:52;14.80;;;9.60;;
58784;SDS011;44557;51.862;19.378;2023-07-02T03:29:54;13.40;;;9.90;;
58784;SDS011;44557;51.862;19.378;2023-07-02T03:31:56;12.90;;;9.70;;
58784;SDS011;44557;51.862;19.378;2023-07-02T03:34:02;14.40;;;9.80;;
58784;SDS011;44557;51.862;19.378;2023-07-02T03:36:06;14.50;;;9.90;;
58784;SDS011;44557;51.862;19.378;2023-07-02T03:38:08;13.00;;;9.40;;
58784;SDS011;44557;51.862;19.378;2023-07-02T03:40:11;14.50;;;9.60;;
58784;SDS011;44557;51.862;19.378;2023-07-02T03:42:12;16.60;;;9.80;;
58784;SDS011;44557;51.862;19.378;2023-07-02T03:44:14;13.70;;;8.90;;
58784;SDS011;44557;51.862;19.378;2023-07-02T03:46:17;14.30;;;9.20;;
58784;SDS011;44557;51.862;19.378;2023-07-02T03:48:19;12.50;;;9.40;;
58784;SDS011;44557;51.862;19.378;2023-07-02T03:50:21;14.50;;;9.70;;
58784;SDS011;44557;51.862;19.378;2023-07-02T03:52:24;12.80;;;9.70;;
58784;SDS011;44557;51.862;19.378;2023-07-02T03:54:26;12.70;;;9.50;;
58784;SDS011;44557;51.862;19.378;2023-07-02T03:56:27;12.40;;;9.30;;
58784;SDS011;44557;51.862;19.378;2023-07-02T03:58:30;13.50;;;9.50;;
58784;SDS011;44557;51.862;19.378;2023-07-02T04:00:33;13.10;;;9.20;;
58784;SDS011;44557;51.862;19.378;2023-07-02T04:02:36;12.90;;;9.70;;
58784;SDS011;44557;51.862;19.378;2023-07-02T04:04:38;15.70;;;8.90;;
58784;SDS011;44557;51.862;19.378;2023-07-02T04:06:40;14.40;;;9.10;;
58784;SDS011;44557;51.862;19.378;2023-07-02T04:08:42;15.20;;;9.50;;
58784;SDS011;44557;51.862;19.378;2023-07-02T04:10:45;14.00;;;8.50;;
58784;SDS011;44557;51.862;19.378;2023-07-02T04:12:47;13.80;;;10.20;;
58784;SDS011;44557;51.862;19.378;2023-07-02T04:14:49;13.50;;;9.40;;
58784;SDS011;44557;51.862;19.378;2023-07-02T04:16:51;14.00;;;8.50;;
58784;SDS011;44557;51.862;19.378;2023-07-02T04:18:53;13.90;;;9.10;;
58784;SDS011;44557;51.862;19.378;2023-07-02T04:20:55;13.80;;;9.40;;
58784;SDS011;44557;51.862;19.378;2023-07-02T04:22:58;13.80;;;8.80;;
58784;SDS011;44557;51.862;19.378;2023-07-02T04:25:00;15.40;;;8.90;;
58784;SDS011;44557;51.862;19.378;2023-07-02T04:27:03;12.90;;;8.30;;
58784;SDS011;44557;51.862;19.378;2023-07-02T04:29:05;14.90;;;8.50;;
58784;SDS011;44557;51.862;19.378;2023-07-02T04:31:08;13.30;;;8.10;;
58784;SDS011;44557;51.862;19.378;2023-07-02T04:33:10;12.70;;;8.50;;
58784;SDS011;44557;51.862;19.378;2023-07-02T04:35:15;13.70;;;8.70;;
58784;SDS011;44557;51.862;19.378;2023-07-02T04:37:18;12.90;;;8.80;;
58784;SDS011;44557;51.862;19.378;2023-07-02T04:39:20;14.60;;;8.90;;
58784;SDS011;44557;51.862;19.378;2023-07-02T04:41:23;12.00;;;8.10;;
58784;SDS011;44557;51.862;19.378;2023-07-02T04:43:25;11.10;;;8.10;;
58784;SDS011;44557;51.862;19.378;2023-07-02T04:45:30;13.60;;;7.90;;
58784;SDS011;44557;51.862;19.378;2023-07-02T04:47:37;13.10;;;8.30;;
58784;SDS011;44557;51.862;19.378;2023-07-02T04:49:40;13.30;;;8.60;;
58784;SDS011;44557;51.862;19.378;2023-07-02T04:51:42;12.60;;;8.30;;
58784;SDS011;44557;51.862;19.378;2023-07-02T04:53:45;14.50;;;8.10;;
58784;SDS011;44557;51.862;19.378;2023-07-02T04:55:47;13.70;;;9.00;;
58784;SDS011;44557;51.862;19.378;2023-07-02T04:57:50;14.70;;;8.40;;
58784;SDS011;44557;51.862;19.378;2023-07-02T04:59:52;12.10;;;8.20;;
58784;SDS011;44557;51.862;19.378;2023-07-02T05:01:54;14.10;;;8.30;;
58784;SDS011;44557;51.862;19.378;2023-07-02T05:03:56;12.10;;;8.00;;
58784;SDS011;44557;51.862;19.378;2023-07-02T05:05:58;11.40;;;7.40;;
58784;SDS011;44557;51.862;19.378;2023-07-02T05:08:00;12.60;;;7.90;;
58784;SDS011;44557;51.862;19.378;2023-07-02T05:10:02;12.80;;;8.20;;
58784;SDS011;44557;51.862;19.378;2023-07-02T05:12:05;11.60;;;8.60;;
58784;SDS011;44557;51.862;19.378;2023-07-02T05:14:07;12.40;;;8.00;;
58784;SDS011;44557;51.862;19.378;2023-07-02T05:16:10;13.10;;;7.90;;
58784;SDS011;44557;51.862;19.378;2023-07-02T05:18:12;11.60;;;7.80;;
58784;SDS011;44557;51.862;19.378;2023-07-02T05:20:14;10.50;;;7.80;;
58784;SDS011;44557;51.862;19.378;2023-07-02T05:22:16;11.50;;;7.50;;
58784;SDS011;44557;51.862;19.378;2023-07-02T05:24:19;12.50;;;7.50;;
58784;SDS011;44557;51.862;19.378;2023-07-02T05:26:21;10.60;;;7.40;;
58784;SDS011;44557;51.862;19.378;2023-07-02T05:28:24;10.40;;;6.70;;
58784;SDS011;44557;51.862;19.378;2023-07-02T05:30:26;12.60;;;7.60;;
58784;SDS011;44557;51.862;19.378;2023-07-02T05:32:30;14.00;;;7.10;;
58784;SDS011;44557;51.862;19.378;2023-07-02T05:34:32;11.30;;;7.00;;
58784;SDS011;44557;51.862;19.378;2023-07-02T05:36:35;10.00;;;7.10;;
58784;SDS011;44557;51.862;19.378;2023-07-02T05:38:38;13.90;;;7.00;;
58784;SDS011;44557;51.862;19.378;2023-07-02T05:40:40;11.80;;;7.00;;
58784;SDS011;44557;51.862;19.378;2023-07-02T05:42:42;12.00;;;7.10;;
58784;SDS011;44557;51.862;19.378;2023-07-02T05:44:44;10.10;;;6.40;;
58784;SDS011;44557;51.862;19.378;2023-07-02T05:46:46;11.00;;;6.70;;
58784;SDS011;44557;51.862;19.378;2023-07-02T05:48:49;12.70;;;7.70;;
58784;SDS011;44557;51.862;19.378;2023-07-02T05:50:51;12.10;;;7.50;;
58784;SDS011;44557;51.862;19.378;2023-07-02T05:52:53;11.50;;;6.80;;
58784;SDS011;44557;51.862;19.378;2023-07-02T05:54:56;9.70;;;6.30;;
58784;SDS011;44557;51.862;19.378;2023-07-02T05:56:58;9.60;;;6.10;;
58784;SDS011;44557;51.862;19.378;2023-07-02T05:59:01;10.50;;;6.80;;
58784;SDS011;44557;51.862;19.378;2023-07-02T06:01:03;10.60;;;7.00;;
58784;SDS011;44557;51.862;19.378;2023-07-02T06:03:08;10.60;;;7.20;;
58784;SDS011;44557;51.862;19.378;2023-07-02T06:05:10;9.40;;;6.80;;
58784;SDS011;44557;51.862;19.378;2023-07-02T06:07:13;11.60;;;7.00;;
58784;SDS011;44557;51.862;19.378;2023-07-02T06:09:16;10.00;;;6.80;;
58784;SDS011;44557;51.862;19.378;2023-07-02T06:11:17;9.40;;;6.70;;
58784;SDS011;44557;51.862;19.378;2023-07-02T06:13:20;8.90;;;6.20;;
58784;SDS011;44557;51.862;19.378;2023-07-02T06:15:22;9.30;;;5.70;;
58784;SDS011;44557;51.862;19.378;2023-07-02T06:17:26;8.00;;;5.70;;
58784;SDS011;44557;51.862;19.378;2023-07-02T06:19:28;11.10;;;6.20;;
58784;SDS011;44557;51.862;19.378;2023-07-02T06:21:30;10.30;;;5.60;;
58784;SDS011;44557;51.862;19.378;2023-07-02T06:23:44;8.00;;;5.20;;
58784;SDS011;44557;51.862;19.378;2023-07-02T06:25:46;8.40;;;5.70;;
58784;SDS011;44557;51.862;19.378;2023-07-02T06:27:48;9.20;;;5.50;;
58784;SDS011;44557;51.862;19.378;2023-07-02T06:29:50;8.30;;;5.30;;
58784;SDS011;44557;51.862;19.378;2023-07-02T06:31:53;8.60;;;5.10;;
58784;SDS011;44557;51.862;19.378;2023-07-02T06:33:56;9.70;;;5.40;;
58784;SDS011;44557;51.862;19.378;2023-07-02T06:35:58;9.90;;;5.60;;
58784;SDS011;44557;51.862;19.378;2023-07-02T06:38:01;8.50;;;4.90;;
58784;SDS011;44557;51.862;19.378;2023-07-02T06:40:04;9.80;;;5.40;;
58784;SDS011;44557;51.862;19.378;2023-07-02T06:42:08;10.50;;;5.80;;
58784;SDS011;44557;51.862;19.378;2023-07-02T06:44:10;7.80;;;4.60;;
58784;SDS011;44557;51.862;19.378;2023-07-02T06:46:12;7.50;;;5.20;;
58784;SDS011;44557;51.862;19.378;2023-07-02T06:48:14;9.10;;;4.70;;
58784;SDS011;44557;51.862;19.378;2023-07-02T06:50:19;9.00;;;4.90;;
58784;SDS011;44557;51.862;19.378;2023-07-02T06:52:22;9.40;;;4.50;;
58784;SDS011;44557;51.862;19.378;2023-07-02T06:54:24;9.40;;;4.80;;
58784;SDS011;44557;51.862;19.378;2023-07-02T06:56:26;7.40;;;4.40;;
58784;SDS011;44557;51.862;19.378;2023-07-02T06:58:28;7.90;;;4.40;;
58784;SDS011;44557;51.862;19.378;2023-07-02T07:00:31;7.80;;;4.10;;
58784;SDS011;44557;51.862;19.378;2023-07-02T07:02:34;7.20;;;4.20;;
58784;SDS011;44557;51.862;19.378;2023-07-02T07:04:36;6.80;;;3.80;;
58784;SDS011;44557;51.862;19.378;2023-07-02T07:06:39;8.00;;;3.80;;
58784;SDS011;44557;51.862;19.378;2023-07-02T07:08:42;8.10;;;4.70;;
58784;SDS011;44557;51.862;19.378;2023-07-02T07:10:44;7.10;;;4.30;;
58784;SDS011;44557;51.862;19.378;2023-07-02T07:12:47;8.20;;;5.10;;
58784;SDS011;44557;51.862;19.378;2023-07-02T07:14:50;6.20;;;4.50;;
58784;SDS011;44557;51.862;19.378;2023-07-02T07:16:52;7.80;;;4.00;;
58784;SDS011;44557;51.862;19.378;2023-07-02T07:18:55;8.30;;;4.60;;
58784;SDS011;44557;51.862;19.378;2023-07-02T07:20:57;8.20;;;3.80;;
58784;SDS011;44557;51.862;19.378;2023-07-02T07:22:59;7.00;;;4.00;;
58784;SDS011;44557;51.862;19.378;2023-07-02T07:25:04;7.40;;;4.30;;
58784;SDS011;44557;51.862;19.378;2023-07-02T07:27:07;7.50;;;4.00;;
58784;SDS011;44557;51.862;19.378;2023-07-02T07:29:10;8.60;;;4.50;;
58784;SDS011;44557;51.862;19.378;2023-07-02T07:31:12;6.60;;;4.50;;
58784;SDS011;44557;51.862;19.378;2023-07-02T07:33:14;6.20;;;4.20;;
58784;SDS011;44557;51.862;19.378;2023-07-02T07:35:17;9.20;;;4.10;;
58784;SDS011;44557;51.862;19.378;2023-07-02T07:37:20;4.90;;;3.40;;
58784;SDS011;44557;51.862;19.378;2023-07-02T07:39:22;7.20;;;4.10;;
58784;SDS011;44557;51.862;19.378;2023-07-02T07:41:24;5.90;;;3.60;;
58784;SDS011;44557;51.862;19.378;2023-07-02T07:43:26;6.50;;;3.70;;
58784;SDS011;44557;51.862;19.378;2023-07-02T07:45:28;6.60;;;3.90;;
58784;SDS011;44557;51.862;19.378;2023-07-02T07:47:30;8.60;;;3.60;;
58784;SDS011;44557;51.862;19.378;2023-07-02T07:49:33;6.20;;;3.70;;
58784;SDS011;44557;51.862;19.378;2023-07-02T07:51:35;6.90;;;3.70;;
58784;SDS011;44557;51.862;19.378;2023-07-02T07:53:40;6.50;;;3.20;;
58784;SDS011;44557;51.862;19.378;2023-07-02T07:55:42;6.40;;;3.20;;
58784;SDS011;44557;51.862;19.378;2023-07-02T07:57:44;4.80;;;3.40;;
58784;SDS011;44557;51.862;19.378;2023-07-02T07:59:46;6.40;;;4.20;;
58784;SDS011;44557;51.862;19.378;2023-07-02T08:01:48;5.90;;;3.10;;
58784;SDS011;44557;51.862;19.378;2023-07-02T08:03:50;7.30;;;3.40;;
58784;SDS011;44557;51.862;19.378;2023-07-02T08:05:54;5.70;;;2.90;;
58784;SDS011;44557;51.862;19.378;2023-07-02T08:07:56;4.20;;;3.00;;
58784;SDS011;44557;51.862;19.378;2023-07-02T08:09:59;4.40;;;2.90;;
58784;SDS011;44557;51.862;19.378;2023-07-02T08:12:01;4.80;;;3.10;;
58784;SDS011;44557;51.862;19.378;2023-07-02T08:14:05;3.70;;;2.50;;
58784;SDS011;44557;51.862;19.378;2023-07-02T08:16:07;3.60;;;2.70;;
58784;SDS011;44557;51.862;19.378;2023-07-02T08:18:11;6.40;;;3.10;;
58784;SDS011;44557;51.862;19.378;2023-07-02T08:20:15;4.60;;;2.50;;
58784;SDS011;44557;51.862;19.378;2023-07-02T08:22:19;6.80;;;2.80;;
58784;SDS011;44557;51.862;19.378;2023-07-02T08:24:21;4.20;;;2.20;;
58784;SDS011;44557;51.862;19.378;2023-07-02T08:26:24;6.30;;;2.20;;
58784;SDS011;44557;51.862;19.378;2023-07-02T08:28:26;5.20;;;3.00;;
58784;SDS011;44557;51.862;19.378;2023-07-02T08:30:28;4.80;;;2.40;;
58784;SDS011;44557;51.862;19.378;2023-07-02T08:32:30;4.80;;;2.20;;
58784;SDS011;44557;51.862;19.378;2023-07-02T08:34:34;3.70;;;2.20;;
58784;SDS011;44557;51.862;19.378;2023-07-02T08:36:36;6.30;;;3.00;;
58784;SDS011;44557;51.862;19.378;2023-07-02T08:38:39;5.10;;;3.00;;
58784;SDS011;44557;51.862;19.378;2023-07-02T08:40:44;6.70;;;3.10;;
58784;SDS011;44557;51.862;19.378;2023-07-02T08:42:47;5.30;;;3.30;;
58784;SDS011;44557;51.862;19.378;2023-07-02T08:44:53;5.10;;;2.50;;
58784;SDS011;44557;51.862;19.378;2023-07-02T08:46:56;5.50;;;2.20;;
58784;SDS011;44557;51.862;19.378;2023-07-02T08:48:58;3.90;;;2.20;;
58784;SDS011;44557;51.862;19.378;2023-07-02T08:51:00;3.90;;;2.20;;
58784;SDS011;44557;51.862;19.378;2023-07-02T08:53:04;6.90;;;2.40;;
58784;SDS011;44557;51.862;19.378;2023-07-02T08:55:06;4.20;;;2.70;;
58784;SDS011;44557;51.862;19.378;2023-07-02T08:57:09;3.50;;;2.50;;
58784;SDS011;44557;51.862;19.378;2023-07-02T08:59:11;4.60;;;2.00;;
58784;SDS011;44557;51.862;19.378;2023-07-02T09:01:13;4.00;;;2.00;;
58784;SDS011;44557;51.862;19.378;2023-07-02T09:03:15;5.50;;;2.70;;
58784;SDS011;44557;51.862;19.378;2023-07-02T09:05:17;5.00;;;1.90;;
58784;SDS011;44557;51.862;19.378;2023-07-02T09:07:19;5.50;;;2.00;;
58784;SDS011;44557;51.862;19.378;2023-07-02T09:09:20;4.20;;;2.40;;
58784;SDS011;44557;51.862;19.378;2023-07-02T09:11:22;3.00;;;2.00;;
58784;SDS011;44557;51.862;19.378;2023-07-02T09:13:24;5.40;;;2.10;;
58784;SDS011;44557;51.862;19.378;2023-07-02T09:15:25;5.00;;;2.50;;
58784;SDS011;44557;51.862;19.378;2023-07-02T09:17:30;7.20;;;2.30;;
58784;SDS011;44557;51.862;19.378;2023-07-02T09:19:33;4.10;;;2.40;;
58784;SDS011;44557;51.862;19.378;2023-07-02T09:21:40;4.40;;;2.60;;
58784;SDS011;44557;51.862;19.378;2023-07-02T09:23:45;3.20;;;2.20;;
58784;SDS011;44557;51.862;19.378;2023-07-02T09:25:47;2.80;;;2.20;;
58784;SDS011;44557;51.862;19.378;2023-07-02T09:27:49;3.70;;;1.90;;
58784;SDS011;44557;51.862;19.378;2023-07-02T09:29:51;4.50;;;1.90;;
58784;SDS011;44557;51.862;19.378;2023-07-02T09:31:57;4.90;;;2.30;;
58784;SDS011;44557;51.862;19.378;2023-07-02T09:34:02;2.90;;;2.10;;
58784;SDS011;44557;51.862;19.378;2023-07-02T09:36:04;4.00;;;1.90;;
58784;SDS011;44557;51.862;19.378;2023-07-02T09:38:06;4.40;;;2.20;;
58784;SDS011;44557;51.862;19.378;2023-07-02T09:40:08;3.80;;;2.10;;
58784;SDS011;44557;51.862;19.378;2023-07-02T09:42:10;2.40;;;2.10;;
58784;SDS011;44557;51.862;19.378;2023-07-02T09:44:12;4.20;;;1.70;;
58784;SDS011;44557;51.862;19.378;2023-07-02T09:46:15;4.90;;;2.40;;
58784;SDS011;44557;51.862;19.378;2023-07-02T09:48:17;3.40;;;1.60;;
58784;SDS011;44557;51.862;19.378;2023-07-02T09:50:19;3.10;;;1.70;;
58784;SDS011;44557;51.862;19.378;2023-07-02T09:52:23;3.20;;;1.90;;
58784;SDS011;44557;51.862;19.378;2023-07-02T09:54:27;3.20;;;1.90;;
58784;SDS011;44557;51.862;19.378;2023-07-02T09:56:29;3.70;;;1.90;;
58784;SDS011;44557;51.862;19.378;2023-07-02T09:58:31;2.60;;;2.00;;
58784;SDS011;44557;51.862;19.378;2023-07-02T10:00:33;3.00;;;1.90;;
58784;SDS011;44557;51.862;19.378;2023-07-02T10:02:35;3.20;;;1.80;;
58784;SDS011;44557;51.862;19.378;2023-07-02T10:04:44;3.10;;;1.70;;
58784;SDS011;44557;51.862;19.378;2023-07-02T10:06:48;2.70;;;1.40;;
58784;SDS011;44557;51.862;19.378;2023-07-02T10:08:52;3.30;;;2.00;;
58784;SDS011;44557;51.862;19.378;2023-07-02T10:11:06;5.80;;;2.10;;
58784;SDS011;44557;51.862;19.378;2023-07-02T10:13:11;4.90;;;1.50;;
58784;SDS011;44557;51.862;19.378;2023-07-02T10:15:23;5.70;;;1.70;;
58784;SDS011;44557;51.862;19.378;2023-07-02T10:19:32;2.60;;;1.70;;
58784;SDS011;44557;51.862;19.378;2023-07-02T10:21:33;5.90;;;1.70;;
58784;SDS011;44557;51.862;19.378;2023-07-02T10:23:35;5.00;;;2.20;;
58784;SDS011;44557;51.862;19.378;2023-07-02T10:25:37;8.30;;;5.00;;
58784;SDS011;44557;51.862;19.378;2023-07-02T10:27:40;4.50;;;2.00;;
58784;SDS011;44557;51.862;19.378;2023-07-02T10:29:49;5.10;;;1.70;;
58784;SDS011;44557;51.862;19.378;2023-07-02T10:31:52;6.00;;;2.40;;
58784;SDS011;44557;51.862;19.378;2023-07-02T10:33:55;3.90;;;2.00;;
58784;SDS011;44557;51.862;19.378;2023-07-02T10:35:57;4.20;;;2.00;;
58784;SDS011;44557;51.862;19.378;2023-07-02T10:37:59;4.50;;;2.40;;
58784;SDS011;44557;51.862;19.378;2023-07-02T10:40:02;4.10;;;1.80;;
58784;SDS011;44557;51.862;19.378;2023-07-02T10:42:07;6.20;;;2.20;;
58784;SDS011;44557;51.862;19.378;2023-07-02T10:44:10;6.00;;;2.60;;
58784;SDS011;44557;51.862;19.378;2023-07-02T10:46:17;8.80;;;2.20;;
58784;SDS011;44557;51.862;19.378;2023-07-02T10:48:24;3.50;;;1.90;;
58784;SDS011;44557;51.862;19.378;2023-07-02T10:50:26;3.20;;;2.00;;
58784;SDS011;44557;51.862;19.378;2023-07-02T10:52:36;4.10;;;2.10;;
58784;SDS011;44557;51.862;19.378;2023-07-02T10:54:39;3.10;;;1.70;;
58784;SDS011;44557;51.862;19.378;2023-07-02T10:56:43;4.20;;;1.80;;
58784;SDS011;44557;51.862;19.378;2023-07-02T10:58:45;2.80;;;1.90;;
58784;SDS011;44557;51.862;19.378;2023-07-02T11:00:51;2.80;;;1.90;;
58784;SDS011;44557;51.862;19.378;2023-07-02T11:02:53;4.10;;;1.80;;
58784;SDS011;44557;51.862;19.378;2023-07-02T11:04:55;3.40;;;1.60;;
58784;SDS011;44557;51.862;19.378;2023-07-02T11:06:57;2.90;;;1.60;;
58784;SDS011;44557;51.862;19.378;2023-07-02T11:08:59;2.60;;;1.80;;
58784;SDS011;44557;51.862;19.378;2023-07-02T11:11:05;4.10;;;1.80;;
58784;SDS011;44557;51.862;19.378;2023-07-02T11:13:13;2.20;;;1.60;;
58784;SDS011;44557;51.862;19.378;2023-07-02T11:15:17;3.70;;;1.60;;
58784;SDS011;44557;51.862;19.378;2023-07-02T11:17:24;8.20;;;3.70;;
58784;SDS011;44557;51.862;19.378;2023-07-02T11:19:27;6.60;;;2.80;;
58784;SDS011;44557;51.862;19.378;2023-07-02T11:21:28;3.20;;;1.70;;
58784;SDS011;44557;51.862;19.378;2023-07-02T11:23:30;4.60;;;2.00;;
58784;SDS011;44557;51.862;19.378;2023-07-02T11:25:36;3.80;;;1.50;;
58784;SDS011;44557;51.862;19.378;2023-07-02T11:27:37;3.80;;;1.70;;
58784;SDS011;44557;51.862;19.378;2023-07-02T11:29:39;4.70;;;2.40;;
58784;SDS011;44557;51.862;19.378;2023-07-02T11:31:41;3.90;;;2.10;;
58784;SDS011;44557;51.862;19.378;2023-07-02T11:33:43;5.40;;;1.40;;
58784;SDS011;44557;51.862;19.378;2023-07-02T11:35:45;4.30;;;2.20;;
58784;SDS011;44557;51.862;19.378;2023-07-02T11:37:48;3.50;;;2.10;;
58784;SDS011;44557;51.862;19.378;2023-07-02T11:39:50;5.00;;;1.90;;
58784;SDS011;44557;51.862;19.378;2023-07-02T11:41:52;3.60;;;1.80;;
58784;SDS011;44557;51.862;19.378;2023-07-02T11:43:54;6.50;;;2.40;;
58784;SDS011;44557;51.862;19.378;2023-07-02T11:45:56;5.00;;;2.40;;
58784;SDS011;44557;51.862;19.378;2023-07-02T11:47:58;4.70;;;2.00;;
58784;SDS011;44557;51.862;19.378;2023-07-02T11:50:00;2.60;;;1.80;;
58784;SDS011;44557;51.862;19.378;2023-07-02T11:52:01;1.90;;;1.50;;
58784;SDS011;44557;51.862;19.378;2023-07-02T11:54:04;8.30;;;2.50;;
58784;SDS011;44557;51.862;19.378;2023-07-02T11:56:06;5.70;;;1.70;;
58784;SDS011;44557;51.862;19.378;2023-07-02T11:58:08;4.30;;;1.80;;
58784;SDS011;44557;51.862;19.378;2023-07-02T12:00:10;5.00;;;2.20;;
58784;SDS011;44557;51.862;19.378;2023-07-02T12:02:12;3.00;;;1.90;;
58784;SDS011;44557;51.862;19.378;2023-07-02T12:04:14;2.80;;;1.70;;
58784;SDS011;44557;51.862;19.378;2023-07-02T12:06:15;4.00;;;1.80;;